sensor_id;sensor_type;location;lat;lon;timestamp;P1;durP1;ratioP1;P2;durP2;ratioP2
1545;SDS011;766;51.502;9.752;2022-08-25T00:00:18;5.82;;;2.80;;
1545;SDS011;766;51.502;9.752;2022-08-25T00:02:47;5.90;;;2.70;;
1545;SDS011;766;51.502;9.752;2022-08-25T00:05:23;6.38;;;3.05;;
1545;SDS011;766;51.502;9.752;2022-08-25T00:07:56;4.63;;;2.78;;
1545;SDS011;766;51.502;9.752;2022-08-25T00:10:24;4.18;;;2.63;;
1545;SDS011;766;51.502;9.752;2022-08-25T00:12:54;6.68;;;2.70;;
1545;SDS011;766;51.502;9.752;2022-08-25T00:15:22;8.23;;;3.33;;
1545;SDS011;766;51.502;9.752;2022-08-25T00:17:53;6.03;;;2.60;;
1545;SDS011;766;51.502;9.752;2022-08-25T00:20:21;5.78;;;2.83;;
1545;SDS011;766;51.502;9.752;2022-08-25T00:22:50;5.80;;;3.03;;
1545;SDS011;766;51.502;9.752;2022-08-25T00:25:22;4.25;;;2.47;;
1545;SDS011;766;51.502;9.752;2022-08-25T00:27:54;4.47;;;2.90;;
1545;SDS011;766;51.502;9.752;2022-08-25T00:30:23;5.05;;;2.55;;
1545;SDS011;766;51.502;9.752;2022-08-25T00:32:51;4.32;;;2.80;;
1545;SDS011;766;51.502;9.752;2022-08-25T00:35:23;5.40;;;2.60;;
1545;SDS011;766;51.502;9.752;2022-08-25T00:37:52;6.05;;;2.42;;
1545;SDS011;766;51.502;9.752;2022-08-25T00:40:26;3.90;;;2.58;;
1545;SDS011;766;51.502;9.752;2022-08-25T00:42:58;6.47;;;2.65;;
1545;SDS011;766;51.502;9.752;2022-08-25T00:45:26;5.63;;;2.83;;
1545;SDS011;766;51.502;9.752;2022-08-25T00:47:59;5.50;;;2.58;;
1545;SDS011;766;51.502;9.752;2022-08-25T00:50:34;5.90;;;2.70;;
1545;SDS011;766;51.502;9.752;2022-08-25T00:53:03;4.10;;;2.85;;
1545;SDS011;766;51.502;9.752;2022-08-25T00:55:41;3.28;;;2.47;;
1545;SDS011;766;51.502;9.752;2022-08-25T00:58:10;5.18;;;2.75;;
1545;SDS011;766;51.502;9.752;2022-08-25T01:00:44;7.40;;;3.10;;
1545;SDS011;766;51.502;9.752;2022-08-25T01:03:15;6.47;;;3.05;;
1545;SDS011;766;51.502;9.752;2022-08-25T01:05:45;8.68;;;2.95;;
1545;SDS011;766;51.502;9.752;2022-08-25T01:08:14;4.75;;;2.85;;
1545;SDS011;766;51.502;9.752;2022-08-25T01:10:48;6.85;;;2.90;;
1545;SDS011;766;51.502;9.752;2022-08-25T01:13:18;5.80;;;2.95;;
1545;SDS011;766;51.502;9.752;2022-08-25T01:15:51;6.18;;;2.90;;
1545;SDS011;766;51.502;9.752;2022-08-25T01:18:22;7.72;;;3.25;;
1545;SDS011;766;51.502;9.752;2022-08-25T01:20:58;5.65;;;3.13;;
1545;SDS011;766;51.502;9.752;2022-08-25T01:23:26;4.05;;;2.70;;
1545;SDS011;766;51.502;9.752;2022-08-25T01:25:57;3.28;;;2.67;;
1545;SDS011;766;51.502;9.752;2022-08-25T01:28:30;4.38;;;2.88;;
1545;SDS011;766;51.502;9.752;2022-08-25T01:30:59;4.70;;;3.05;;
1545;SDS011;766;51.502;9.752;2022-08-25T01:33:30;3.65;;;3.13;;
1545;SDS011;766;51.502;9.752;2022-08-25T01:36:03;4.80;;;2.90;;
1545;SDS011;766;51.502;9.752;2022-08-25T01:38:31;5.00;;;3.10;;
1545;SDS011;766;51.502;9.752;2022-08-25T01:41:00;5.75;;;3.10;;
1545;SDS011;766;51.502;9.752;2022-08-25T01:43:29;6.28;;;3.03;;
1545;SDS011;766;51.502;9.752;2022-08-25T01:46:04;5.65;;;3.25;;
1545;SDS011;766;51.502;9.752;2022-08-25T01:48:34;4.75;;;2.83;;
1545;SDS011;766;51.502;9.752;2022-08-25T01:51:04;6.13;;;2.80;;
1545;SDS011;766;51.502;9.752;2022-08-25T01:53:35;4.30;;;3.33;;
1545;SDS011;766;51.502;9.752;2022-08-25T01:56:07;4.30;;;3.03;;
1545;SDS011;766;51.502;9.752;2022-08-25T01:58:38;4.43;;;2.97;;
1545;SDS011;766;51.502;9.752;2022-08-25T02:01:09;4.45;;;3.20;;
1545;SDS011;766;51.502;9.752;2022-08-25T02:03:44;3.45;;;3.15;;
1545;SDS011;766;51.502;9.752;2022-08-25T02:06:19;10.73;;;3.65;;
1545;SDS011;766;51.502;9.752;2022-08-25T02:08:56;4.88;;;3.85;;
1545;SDS011;766;51.502;9.752;2022-08-25T02:11:26;5.32;;;3.38;;
1545;SDS011;766;51.502;9.752;2022-08-25T02:13:56;8.98;;;3.72;;
1545;SDS011;766;51.502;9.752;2022-08-25T02:16:27;4.15;;;3.20;;
1545;SDS011;766;51.502;9.752;2022-08-25T02:18:58;4.55;;;3.40;;
1545;SDS011;766;51.502;9.752;2022-08-25T02:21:29;6.53;;;3.55;;
1545;SDS011;766;51.502;9.752;2022-08-25T02:24:07;4.68;;;3.22;;
1545;SDS011;766;51.502;9.752;2022-08-25T02:26:37;5.03;;;3.60;;
1545;SDS011;766;51.502;9.752;2022-08-25T02:29:07;7.38;;;3.45;;
1545;SDS011;766;51.502;9.752;2022-08-25T02:31:37;4.25;;;3.13;;
1545;SDS011;766;51.502;9.752;2022-08-25T02:34:06;5.13;;;3.55;;
1545;SDS011;766;51.502;9.752;2022-08-25T02:36:36;7.10;;;3.80;;
1545;SDS011;766;51.502;9.752;2022-08-25T02:39:05;6.63;;;3.65;;
1545;SDS011;766;51.502;9.752;2022-08-25T02:41:35;10.60;;;3.70;;
1545;SDS011;766;51.502;9.752;2022-08-25T02:44:05;6.95;;;3.50;;
1545;SDS011;766;51.502;9.752;2022-08-25T02:46:34;8.73;;;3.90;;
1545;SDS011;766;51.502;9.752;2022-08-25T02:49:03;7.00;;;3.63;;
1545;SDS011;766;51.502;9.752;2022-08-25T02:51:33;5.78;;;3.80;;
1545;SDS011;766;51.502;9.752;2022-08-25T02:54:05;5.18;;;3.72;;
1545;SDS011;766;51.502;9.752;2022-08-25T02:56:38;5.93;;;3.60;;
1545;SDS011;766;51.502;9.752;2022-08-25T02:59:09;7.47;;;4.00;;
1545;SDS011;766;51.502;9.752;2022-08-25T03:01:40;8.40;;;3.80;;
1545;SDS011;766;51.502;9.752;2022-08-25T03:04:09;4.53;;;3.80;;
1545;SDS011;766;51.502;9.752;2022-08-25T03:06:41;7.13;;;4.05;;
1545;SDS011;766;51.502;9.752;2022-08-25T03:09:14;5.60;;;4.00;;
1545;SDS011;766;51.502;9.752;2022-08-25T03:11:43;7.05;;;4.45;;
1545;SDS011;766;51.502;9.752;2022-08-25T03:14:12;6.18;;;3.90;;
1545;SDS011;766;51.502;9.752;2022-08-25T03:16:41;5.90;;;4.15;;
1545;SDS011;766;51.502;9.752;2022-08-25T03:19:12;6.10;;;3.90;;
1545;SDS011;766;51.502;9.752;2022-08-25T03:21:43;5.10;;;4.00;;
1545;SDS011;766;51.502;9.752;2022-08-25T03:24:12;4.10;;;3.60;;
1545;SDS011;766;51.502;9.752;2022-08-25T03:26:46;8.88;;;4.03;;
1545;SDS011;766;51.502;9.752;2022-08-25T03:29:19;5.78;;;4.18;;
1545;SDS011;766;51.502;9.752;2022-08-25T03:31:48;8.18;;;3.97;;
1545;SDS011;766;51.502;9.752;2022-08-25T03:34:17;4.80;;;4.30;;
1545;SDS011;766;51.502;9.752;2022-08-25T03:36:50;6.07;;;4.45;;
1545;SDS011;766;51.502;9.752;2022-08-25T03:39:22;7.15;;;4.13;;
1545;SDS011;766;51.502;9.752;2022-08-25T03:41:55;6.40;;;4.13;;
1545;SDS011;766;51.502;9.752;2022-08-25T03:44:26;5.63;;;4.55;;
1545;SDS011;766;51.502;9.752;2022-08-25T03:46:55;5.38;;;4.18;;
1545;SDS011;766;51.502;9.752;2022-08-25T03:49:24;5.55;;;3.78;;
1545;SDS011;766;51.502;9.752;2022-08-25T03:51:54;5.38;;;4.07;;
1545;SDS011;766;51.502;9.752;2022-08-25T03:54:24;5.90;;;3.72;;
1545;SDS011;766;51.502;9.752;2022-08-25T03:56:55;4.10;;;3.70;;
1545;SDS011;766;51.502;9.752;2022-08-25T03:59:24;6.93;;;4.30;;
1545;SDS011;766;51.502;9.752;2022-08-25T04:01:54;6.35;;;4.25;;
1545;SDS011;766;51.502;9.752;2022-08-25T04:04:23;9.23;;;4.05;;
1545;SDS011;766;51.502;9.752;2022-08-25T04:06:51;7.32;;;3.90;;
1545;SDS011;766;51.502;9.752;2022-08-25T04:09:23;6.85;;;4.45;;
1545;SDS011;766;51.502;9.752;2022-08-25T04:11:56;5.03;;;4.38;;
1545;SDS011;766;51.502;9.752;2022-08-25T04:14:25;8.85;;;4.07;;
1545;SDS011;766;51.502;9.752;2022-08-25T04:16:53;10.77;;;4.03;;
1545;SDS011;766;51.502;9.752;2022-08-25T04:19:23;4.30;;;3.90;;
1545;SDS011;766;51.502;9.752;2022-08-25T04:21:53;7.53;;;4.43;;
1545;SDS011;766;51.502;9.752;2022-08-25T04:24:24;6.45;;;4.05;;
1545;SDS011;766;51.502;9.752;2022-08-25T04:26:54;8.20;;;4.22;;
1545;SDS011;766;51.502;9.752;2022-08-25T04:29:23;8.18;;;4.13;;
1545;SDS011;766;51.502;9.752;2022-08-25T04:31:53;6.60;;;3.92;;
1545;SDS011;766;51.502;9.752;2022-08-25T04:34:23;5.22;;;4.28;;
1545;SDS011;766;51.502;9.752;2022-08-25T04:36:57;5.35;;;3.95;;
1545;SDS011;766;51.502;9.752;2022-08-25T04:39:29;6.55;;;4.03;;
1545;SDS011;766;51.502;9.752;2022-08-25T04:41:58;7.80;;;4.68;;
1545;SDS011;766;51.502;9.752;2022-08-25T04:44:30;11.90;;;4.50;;
1545;SDS011;766;51.502;9.752;2022-08-25T04:46:59;8.57;;;4.57;;
1545;SDS011;766;51.502;9.752;2022-08-25T04:49:28;7.05;;;4.50;;
1545;SDS011;766;51.502;9.752;2022-08-25T04:52:03;9.73;;;5.10;;
1545;SDS011;766;51.502;9.752;2022-08-25T04:54:43;6.40;;;4.68;;
1545;SDS011;766;51.502;9.752;2022-08-25T04:57:12;9.02;;;4.60;;
1545;SDS011;766;51.502;9.752;2022-08-25T04:59:43;7.43;;;4.45;;
1545;SDS011;766;51.502;9.752;2022-08-25T05:02:13;9.38;;;4.63;;
1545;SDS011;766;51.502;9.752;2022-08-25T05:04:42;7.25;;;4.53;;
1545;SDS011;766;51.502;9.752;2022-08-25T05:07:11;11.75;;;3.95;;
1545;SDS011;766;51.502;9.752;2022-08-25T05:09:39;5.82;;;4.05;;
1545;SDS011;766;51.502;9.752;2022-08-25T05:12:10;8.00;;;4.55;;
1545;SDS011;766;51.502;9.752;2022-08-25T05:14:38;5.45;;;4.55;;
1545;SDS011;766;51.502;9.752;2022-08-25T05:17:06;6.20;;;3.95;;
1545;SDS011;766;51.502;9.752;2022-08-25T05:19:35;6.97;;;4.38;;
1545;SDS011;766;51.502;9.752;2022-08-25T05:22:03;10.02;;;4.60;;
1545;SDS011;766;51.502;9.752;2022-08-25T05:24:32;9.70;;;5.38;;
1545;SDS011;766;51.502;9.752;2022-08-25T05:27:00;7.40;;;5.03;;
1545;SDS011;766;51.502;9.752;2022-08-25T05:29:30;10.55;;;4.75;;
1545;SDS011;766;51.502;9.752;2022-08-25T05:31:58;10.10;;;5.38;;
1545;SDS011;766;51.502;9.752;2022-08-25T05:34:29;10.40;;;5.30;;
1545;SDS011;766;51.502;9.752;2022-08-25T05:36:58;6.60;;;5.32;;
1545;SDS011;766;51.502;9.752;2022-08-25T05:39:28;8.45;;;4.60;;
1545;SDS011;766;51.502;9.752;2022-08-25T05:42:00;9.43;;;4.13;;
1545;SDS011;766;51.502;9.752;2022-08-25T05:44:31;8.52;;;4.20;;
1545;SDS011;766;51.502;9.752;2022-08-25T05:46:59;6.90;;;4.90;;
1545;SDS011;766;51.502;9.752;2022-08-25T05:49:28;12.05;;;4.80;;
1545;SDS011;766;51.502;9.752;2022-08-25T05:51:57;12.48;;;5.72;;
1545;SDS011;766;51.502;9.752;2022-08-25T05:54:26;17.38;;;7.82;;
1545;SDS011;766;51.502;9.752;2022-08-25T05:56:55;14.82;;;6.35;;
1545;SDS011;766;51.502;9.752;2022-08-25T05:59:24;12.82;;;5.25;;
1545;SDS011;766;51.502;9.752;2022-08-25T06:01:55;12.30;;;5.03;;
1545;SDS011;766;51.502;9.752;2022-08-25T06:04:41;20.40;;;5.30;;
1545;SDS011;766;51.502;9.752;2022-08-25T06:07:09;17.92;;;4.78;;
1545;SDS011;766;51.502;9.752;2022-08-25T06:09:38;17.15;;;4.93;;
1545;SDS011;766;51.502;9.752;2022-08-25T06:12:08;12.18;;;4.35;;
1545;SDS011;766;51.502;9.752;2022-08-25T06:14:36;11.57;;;4.15;;
1545;SDS011;766;51.502;9.752;2022-08-25T06:17:07;7.78;;;3.55;;
1545;SDS011;766;51.502;9.752;2022-08-25T06:19:36;6.28;;;4.00;;
1545;SDS011;766;51.502;9.752;2022-08-25T06:22:07;10.77;;;3.25;;
1545;SDS011;766;51.502;9.752;2022-08-25T06:24:41;6.30;;;3.78;;
1545;SDS011;766;51.502;9.752;2022-08-25T06:27:11;7.85;;;3.85;;
1545;SDS011;766;51.502;9.752;2022-08-25T06:29:41;9.43;;;4.43;;
1545;SDS011;766;51.502;9.752;2022-08-25T06:32:14;8.68;;;3.95;;
1545;SDS011;766;51.502;9.752;2022-08-25T06:34:43;11.70;;;4.05;;
1545;SDS011;766;51.502;9.752;2022-08-25T06:37:12;8.40;;;4.35;;
1545;SDS011;766;51.502;9.752;2022-08-25T06:39:42;8.48;;;4.32;;
1545;SDS011;766;51.502;9.752;2022-08-25T06:42:10;7.00;;;4.35;;
1545;SDS011;766;51.502;9.752;2022-08-25T06:44:40;5.82;;;4.20;;
1545;SDS011;766;51.502;9.752;2022-08-25T06:47:09;8.43;;;4.60;;
1545;SDS011;766;51.502;9.752;2022-08-25T06:49:44;10.18;;;4.90;;
1545;SDS011;766;51.502;9.752;2022-08-25T06:52:14;9.75;;;5.57;;
1545;SDS011;766;51.502;9.752;2022-08-25T06:54:43;7.35;;;5.53;;
1545;SDS011;766;51.502;9.752;2022-08-25T06:57:16;8.30;;;5.75;;
1545;SDS011;766;51.502;9.752;2022-08-25T06:59:45;9.90;;;6.78;;
1545;SDS011;766;51.502;9.752;2022-08-25T07:02:19;11.77;;;6.40;;
1545;SDS011;766;51.502;9.752;2022-08-25T07:04:54;9.13;;;6.80;;
1545;SDS011;766;51.502;9.752;2022-08-25T07:07:23;9.02;;;6.53;;
1545;SDS011;766;51.502;9.752;2022-08-25T07:10:08;9.68;;;6.72;;
1545;SDS011;766;51.502;9.752;2022-08-25T07:12:40;12.60;;;7.05;;
1545;SDS011;766;51.502;9.752;2022-08-25T07:15:09;9.63;;;7.10;;
1545;SDS011;766;51.502;9.752;2022-08-25T07:17:47;10.75;;;6.05;;
1545;SDS011;766;51.502;9.752;2022-08-25T07:20:17;12.20;;;7.28;;
1545;SDS011;766;51.502;9.752;2022-08-25T07:22:46;13.15;;;7.78;;
1545;SDS011;766;51.502;9.752;2022-08-25T07:25:17;9.85;;;6.80;;
1545;SDS011;766;51.502;9.752;2022-08-25T07:27:47;13.77;;;7.22;;
1545;SDS011;766;51.502;9.752;2022-08-25T07:30:24;11.85;;;6.60;;
1545;SDS011;766;51.502;9.752;2022-08-25T07:32:53;10.48;;;6.60;;
1545;SDS011;766;51.502;9.752;2022-08-25T07:35:25;17.45;;;7.55;;
1545;SDS011;766;51.502;9.752;2022-08-25T07:38:03;9.88;;;7.30;;
1545;SDS011;766;51.502;9.752;2022-08-25T07:40:38;14.77;;;6.80;;
1545;SDS011;766;51.502;9.752;2022-08-25T07:43:08;13.85;;;7.80;;
1545;SDS011;766;51.502;9.752;2022-08-25T07:45:37;12.88;;;8.38;;
1545;SDS011;766;51.502;9.752;2022-08-25T07:48:14;11.50;;;7.05;;
1545;SDS011;766;51.502;9.752;2022-08-25T07:50:47;11.45;;;8.10;;
1545;SDS011;766;51.502;9.752;2022-08-25T07:53:17;10.45;;;7.32;;
1545;SDS011;766;51.502;9.752;2022-08-25T07:55:49;11.23;;;7.97;;
1545;SDS011;766;51.502;9.752;2022-08-25T07:58:21;11.10;;;7.45;;
1545;SDS011;766;51.502;9.752;2022-08-25T08:00:49;15.60;;;7.40;;
1545;SDS011;766;51.502;9.752;2022-08-25T08:03:21;9.73;;;7.30;;
1545;SDS011;766;51.502;9.752;2022-08-25T08:06:13;9.30;;;7.07;;
1545;SDS011;766;51.502;9.752;2022-08-25T08:08:49;17.40;;;7.60;;
1545;SDS011;766;51.502;9.752;2022-08-25T08:11:27;10.23;;;6.95;;
1545;SDS011;766;51.502;9.752;2022-08-25T08:14:22;13.95;;;8.00;;
1545;SDS011;766;51.502;9.752;2022-08-25T08:16:55;11.70;;;6.60;;
1545;SDS011;766;51.502;9.752;2022-08-25T08:19:26;13.40;;;7.20;;
1545;SDS011;766;51.502;9.752;2022-08-25T08:22:05;7.90;;;6.43;;
1545;SDS011;766;51.502;9.752;2022-08-25T08:24:38;10.75;;;7.13;;
1545;SDS011;766;51.502;9.752;2022-08-25T08:27:22;11.95;;;6.90;;
1545;SDS011;766;51.502;9.752;2022-08-25T08:29:58;13.07;;;7.03;;
1545;SDS011;766;51.502;9.752;2022-08-25T08:32:30;11.15;;;7.43;;
1545;SDS011;766;51.502;9.752;2022-08-25T08:35:20;13.60;;;7.72;;
1545;SDS011;766;51.502;9.752;2022-08-25T08:37:56;11.40;;;7.03;;
1545;SDS011;766;51.502;9.752;2022-08-25T08:40:24;13.38;;;8.23;;
1545;SDS011;766;51.502;9.752;2022-08-25T08:42:59;14.52;;;8.73;;
1545;SDS011;766;51.502;9.752;2022-08-25T08:45:44;16.55;;;8.82;;
1545;SDS011;766;51.502;9.752;2022-08-25T08:48:26;15.93;;;8.88;;
1545;SDS011;766;51.502;9.752;2022-08-25T08:51:14;12.98;;;8.30;;
1545;SDS011;766;51.502;9.752;2022-08-25T08:53:51;14.52;;;8.55;;
1545;SDS011;766;51.502;9.752;2022-08-25T08:56:23;15.23;;;8.52;;
1545;SDS011;766;51.502;9.752;2022-08-25T08:59:02;14.25;;;9.45;;
1545;SDS011;766;51.502;9.752;2022-08-25T09:01:36;14.27;;;8.85;;
1545;SDS011;766;51.502;9.752;2022-08-25T09:04:12;16.77;;;8.10;;
1545;SDS011;766;51.502;9.752;2022-08-25T09:06:49;11.10;;;8.27;;
1545;SDS011;766;51.502;9.752;2022-08-25T09:09:26;12.35;;;7.90;;
1545;SDS011;766;51.502;9.752;2022-08-25T09:12:04;15.68;;;8.95;;
1545;SDS011;766;51.502;9.752;2022-08-25T09:17:47;9.70;;;7.55;;
1545;SDS011;766;51.502;9.752;2022-08-25T09:20:31;13.73;;;9.15;;
1545;SDS011;766;51.502;9.752;2022-08-25T09:23:14;11.27;;;7.40;;
1545;SDS011;766;51.502;9.752;2022-08-25T09:25:59;17.45;;;8.05;;
1545;SDS011;766;51.502;9.752;2022-08-25T09:28:40;16.90;;;8.70;;
1545;SDS011;766;51.502;9.752;2022-08-25T09:31:18;10.13;;;7.90;;
1545;SDS011;766;51.502;9.752;2022-08-25T09:34:01;15.32;;;8.55;;
1545;SDS011;766;51.502;9.752;2022-08-25T09:36:38;13.10;;;8.65;;
1545;SDS011;766;51.502;9.752;2022-08-25T09:39:30;16.48;;;8.32;;
1545;SDS011;766;51.502;9.752;2022-08-25T09:42:03;15.77;;;8.52;;
1545;SDS011;766;51.502;9.752;2022-08-25T09:44:38;12.70;;;7.93;;
1545;SDS011;766;51.502;9.752;2022-08-25T09:47:19;18.85;;;8.63;;
1545;SDS011;766;51.502;9.752;2022-08-25T09:49:56;11.23;;;8.00;;
1545;SDS011;766;51.502;9.752;2022-08-25T09:52:30;15.70;;;8.13;;
1545;SDS011;766;51.502;9.752;2022-08-25T09:55:15;11.25;;;8.02;;
1545;SDS011;766;51.502;9.752;2022-08-25T09:57:59;15.18;;;7.85;;
1545;SDS011;766;51.502;9.752;2022-08-25T10:00:42;15.88;;;8.27;;
1545;SDS011;766;51.502;9.752;2022-08-25T10:03:13;12.80;;;6.93;;
1545;SDS011;766;51.502;9.752;2022-08-25T10:05:58;18.45;;;8.13;;
1545;SDS011;766;51.502;9.752;2022-08-25T10:08:33;9.32;;;7.07;;
1545;SDS011;766;51.502;9.752;2022-08-25T10:17:12;10.93;;;7.63;;
1545;SDS011;766;51.502;9.752;2022-08-25T10:19:46;16.63;;;7.75;;
1545;SDS011;766;51.502;9.752;2022-08-25T10:22:21;13.45;;;7.40;;
1545;SDS011;766;51.502;9.752;2022-08-25T10:24:57;15.90;;;7.75;;
1545;SDS011;766;51.502;9.752;2022-08-25T10:27:33;19.05;;;8.10;;
1545;SDS011;766;51.502;9.752;2022-08-25T10:30:16;9.43;;;7.03;;
1545;SDS011;766;51.502;9.752;2022-08-25T10:33:00;11.73;;;7.50;;
1545;SDS011;766;51.502;9.752;2022-08-25T10:35:46;13.52;;;8.00;;
1545;SDS011;766;51.502;9.752;2022-08-25T10:38:31;13.27;;;7.45;;
1545;SDS011;766;51.502;9.752;2022-08-25T10:41:12;11.90;;;8.02;;
1545;SDS011;766;51.502;9.752;2022-08-25T10:44:05;11.82;;;7.60;;
1545;SDS011;766;51.502;9.752;2022-08-25T10:46:58;15.30;;;7.68;;
1545;SDS011;766;51.502;9.752;2022-08-25T10:49:55;13.05;;;7.75;;
1545;SDS011;766;51.502;9.752;2022-08-25T10:52:31;14.93;;;7.72;;
1545;SDS011;766;51.502;9.752;2022-08-25T10:55:21;12.05;;;8.07;;
1545;SDS011;766;51.502;9.752;2022-08-25T10:57:59;14.60;;;8.23;;
1545;SDS011;766;51.502;9.752;2022-08-25T11:01:01;11.88;;;7.65;;
1545;SDS011;766;51.502;9.752;2022-08-25T11:06:48;12.52;;;6.88;;
1545;SDS011;766;51.502;9.752;2022-08-25T11:09:22;15.65;;;7.15;;
1545;SDS011;766;51.502;9.752;2022-08-25T11:12:21;10.85;;;6.63;;
1545;SDS011;766;51.502;9.752;2022-08-25T11:15:08;9.98;;;6.78;;
1545;SDS011;766;51.502;9.752;2022-08-25T11:17:55;10.90;;;7.22;;
1545;SDS011;766;51.502;9.752;2022-08-25T11:20:31;11.00;;;6.47;;
1545;SDS011;766;51.502;9.752;2022-08-25T11:26:12;15.15;;;7.47;;
1545;SDS011;766;51.502;9.752;2022-08-25T11:29:01;11.38;;;6.90;;
1545;SDS011;766;51.502;9.752;2022-08-25T11:31:38;13.50;;;7.50;;
1545;SDS011;766;51.502;9.752;2022-08-25T11:34:19;13.18;;;7.38;;
1545;SDS011;766;51.502;9.752;2022-08-25T11:36:55;15.70;;;8.27;;
1545;SDS011;766;51.502;9.752;2022-08-25T11:39:34;13.38;;;7.63;;
1545;SDS011;766;51.502;9.752;2022-08-25T11:42:29;10.85;;;7.32;;
1545;SDS011;766;51.502;9.752;2022-08-25T11:45:11;11.25;;;7.50;;
1545;SDS011;766;51.502;9.752;2022-08-25T11:47:58;12.52;;;6.97;;
1545;SDS011;766;51.502;9.752;2022-08-25T11:50:55;11.68;;;7.05;;
1545;SDS011;766;51.502;9.752;2022-08-25T11:53:37;17.10;;;7.03;;
1545;SDS011;766;51.502;9.752;2022-08-25T11:56:29;16.88;;;7.10;;
1545;SDS011;766;51.502;9.752;2022-08-25T11:59:00;10.48;;;6.97;;
1545;SDS011;766;51.502;9.752;2022-08-25T12:05:01;6.53;;;5.80;;
1545;SDS011;766;51.502;9.752;2022-08-25T12:07:59;10.02;;;6.03;;
1545;SDS011;766;51.502;9.752;2022-08-25T12:11:00;8.85;;;5.60;;
1545;SDS011;766;51.502;9.752;2022-08-25T12:13:56;11.05;;;6.53;;
1545;SDS011;766;51.502;9.752;2022-08-25T12:16:59;11.15;;;6.78;;
1545;SDS011;766;51.502;9.752;2022-08-25T12:19:50;15.02;;;7.07;;
1545;SDS011;766;51.502;9.752;2022-08-25T12:22:39;18.48;;;7.65;;
1545;SDS011;766;51.502;9.752;2022-08-25T12:25:33;12.98;;;6.95;;
1545;SDS011;766;51.502;9.752;2022-08-25T12:31:23;11.70;;;6.50;;
1545;SDS011;766;51.502;9.752;2022-08-25T12:34:18;11.32;;;6.40;;
1545;SDS011;766;51.502;9.752;2022-08-25T12:37:11;13.00;;;6.50;;
1545;SDS011;766;51.502;9.752;2022-08-25T12:39:43;14.32;;;5.88;;
1545;SDS011;766;51.502;9.752;2022-08-25T12:42:27;11.10;;;5.82;;
1545;SDS011;766;51.502;9.752;2022-08-25T12:45:08;11.10;;;5.82;;
1545;SDS011;766;51.502;9.752;2022-08-25T12:47:47;9.48;;;6.30;;
1545;SDS011;766;51.502;9.752;2022-08-25T12:50:39;14.52;;;6.60;;
1545;SDS011;766;51.502;9.752;2022-08-25T12:53:21;12.88;;;6.90;;
1545;SDS011;766;51.502;9.752;2022-08-25T12:56:15;14.27;;;7.03;;
1545;SDS011;766;51.502;9.752;2022-08-25T12:58:54;13.45;;;7.15;;
1545;SDS011;766;51.502;9.752;2022-08-25T13:01:33;9.50;;;7.68;;
1545;SDS011;766;51.502;9.752;2022-08-25T13:07:40;13.13;;;7.07;;
1545;SDS011;766;51.502;9.752;2022-08-25T13:10:39;13.32;;;7.35;;
1545;SDS011;766;51.502;9.752;2022-08-25T13:13:20;12.70;;;7.25;;
1545;SDS011;766;51.502;9.752;2022-08-25T13:16:02;10.65;;;7.35;;
1545;SDS011;766;51.502;9.752;2022-08-25T13:18:37;12.60;;;7.35;;
1545;SDS011;766;51.502;9.752;2022-08-25T13:21:14;14.98;;;7.38;;
1545;SDS011;766;51.502;9.752;2022-08-25T13:23:59;13.73;;;7.68;;
1545;SDS011;766;51.502;9.752;2022-08-25T13:26:39;15.68;;;8.30;;
1545;SDS011;766;51.502;9.752;2022-08-25T13:29:18;10.98;;;7.45;;
1545;SDS011;766;51.502;9.752;2022-08-25T13:35:25;17.38;;;8.25;;
1545;SDS011;766;51.502;9.752;2022-08-25T13:38:23;11.15;;;7.80;;
1545;SDS011;766;51.502;9.752;2022-08-25T13:41:17;9.38;;;7.20;;
1545;SDS011;766;51.502;9.752;2022-08-25T13:44:14;13.30;;;7.15;;
1545;SDS011;766;51.502;9.752;2022-08-25T13:47:04;11.70;;;7.22;;
1545;SDS011;766;51.502;9.752;2022-08-25T13:49:38;11.50;;;6.80;;
1545;SDS011;766;51.502;9.752;2022-08-25T13:52:24;8.40;;;5.97;;
1545;SDS011;766;51.502;9.752;2022-08-25T13:55:17;12.07;;;7.13;;
1545;SDS011;766;51.502;9.752;2022-08-25T13:58:11;14.13;;;8.15;;
1545;SDS011;766;51.502;9.752;2022-08-25T14:01:08;20.13;;;8.02;;
1545;SDS011;766;51.502;9.752;2022-08-25T14:04:19;8.00;;;7.15;;
1545;SDS011;766;51.502;9.752;2022-08-25T14:07:25;11.95;;;7.88;;
1545;SDS011;766;51.502;9.752;2022-08-25T14:10:01;13.77;;;7.00;;
1545;SDS011;766;51.502;9.752;2022-08-25T14:12:39;17.05;;;7.53;;
1545;SDS011;766;51.502;9.752;2022-08-25T14:15:29;12.48;;;7.47;;
1545;SDS011;766;51.502;9.752;2022-08-25T14:17:59;13.75;;;7.22;;
1545;SDS011;766;51.502;9.752;2022-08-25T14:20:34;18.90;;;7.95;;
1545;SDS011;766;51.502;9.752;2022-08-25T14:23:08;14.88;;;6.93;;
1545;SDS011;766;51.502;9.752;2022-08-25T14:26:04;11.02;;;7.38;;
1545;SDS011;766;51.502;9.752;2022-08-25T14:28:33;12.82;;;7.65;;
1545;SDS011;766;51.502;9.752;2022-08-25T14:31:08;16.83;;;7.50;;
1545;SDS011;766;51.502;9.752;2022-08-25T14:33:46;10.18;;;6.72;;
1545;SDS011;766;51.502;9.752;2022-08-25T14:36:26;12.43;;;7.30;;
1545;SDS011;766;51.502;9.752;2022-08-25T14:39:04;11.25;;;6.45;;
1545;SDS011;766;51.502;9.752;2022-08-25T14:41:57;13.02;;;7.00;;
1545;SDS011;766;51.502;9.752;2022-08-25T14:44:27;12.10;;;7.25;;
1545;SDS011;766;51.502;9.752;2022-08-25T14:47:00;11.98;;;7.60;;
1545;SDS011;766;51.502;9.752;2022-08-25T14:49:33;13.82;;;7.05;;
1545;SDS011;766;51.502;9.752;2022-08-25T14:52:07;12.10;;;6.93;;
1545;SDS011;766;51.502;9.752;2022-08-25T14:54:39;15.88;;;7.25;;
1545;SDS011;766;51.502;9.752;2022-08-25T14:57:09;17.05;;;7.30;;
1545;SDS011;766;51.502;9.752;2022-08-25T14:59:39;18.38;;;7.35;;
1545;SDS011;766;51.502;9.752;2022-08-25T15:02:10;10.30;;;7.10;;
1545;SDS011;766;51.502;9.752;2022-08-25T15:04:46;13.43;;;7.00;;
1545;SDS011;766;51.502;9.752;2022-08-25T15:07:21;13.10;;;7.28;;
1545;SDS011;766;51.502;9.752;2022-08-25T15:10:25;11.20;;;6.18;;
1545;SDS011;766;51.502;9.752;2022-08-25T15:12:56;15.13;;;6.55;;
1545;SDS011;766;51.502;9.752;2022-08-25T15:15:38;13.48;;;6.68;;
1545;SDS011;766;51.502;9.752;2022-08-25T15:18:20;10.85;;;6.18;;
1545;SDS011;766;51.502;9.752;2022-08-25T15:20:54;7.20;;;6.10;;
1545;SDS011;766;51.502;9.752;2022-08-25T15:23:32;8.90;;;6.45;;
1545;SDS011;766;51.502;9.752;2022-08-25T15:26:14;14.57;;;7.00;;
1545;SDS011;766;51.502;9.752;2022-08-25T15:28:47;12.77;;;6.28;;
1545;SDS011;766;51.502;9.752;2022-08-25T15:31:18;16.80;;;6.93;;
1545;SDS011;766;51.502;9.752;2022-08-25T15:33:50;17.25;;;6.40;;
1545;SDS011;766;51.502;9.752;2022-08-25T15:36:21;12.98;;;6.05;;
1545;SDS011;766;51.502;9.752;2022-08-25T15:38:54;9.30;;;6.68;;
1545;SDS011;766;51.502;9.752;2022-08-25T15:41:25;9.98;;;5.68;;
1545;SDS011;766;51.502;9.752;2022-08-25T15:43:58;15.75;;;6.28;;
1545;SDS011;766;51.502;9.752;2022-08-25T15:46:28;14.57;;;5.95;;
1545;SDS011;766;51.502;9.752;2022-08-25T15:48:58;16.08;;;6.70;;
1545;SDS011;766;51.502;9.752;2022-08-25T15:51:27;9.95;;;5.68;;
1545;SDS011;766;51.502;9.752;2022-08-25T15:53:57;12.75;;;6.47;;
1545;SDS011;766;51.502;9.752;2022-08-25T15:56:30;13.68;;;6.50;;
1545;SDS011;766;51.502;9.752;2022-08-25T15:58:59;11.95;;;5.97;;
1545;SDS011;766;51.502;9.752;2022-08-25T16:01:34;13.77;;;6.03;;
1545;SDS011;766;51.502;9.752;2022-08-25T16:04:04;12.27;;;6.22;;
1545;SDS011;766;51.502;9.752;2022-08-25T16:06:32;7.38;;;5.38;;
1545;SDS011;766;51.502;9.752;2022-08-25T16:09:00;11.70;;;5.43;;
1545;SDS011;766;51.502;9.752;2022-08-25T16:11:30;8.13;;;5.45;;
1545;SDS011;766;51.502;9.752;2022-08-25T16:14:02;12.70;;;5.78;;
1545;SDS011;766;51.502;9.752;2022-08-25T16:16:30;14.98;;;5.75;;
1545;SDS011;766;51.502;9.752;2022-08-25T16:19:00;12.15;;;5.50;;
1545;SDS011;766;51.502;9.752;2022-08-25T16:21:39;10.15;;;5.78;;
1545;SDS011;766;51.502;9.752;2022-08-25T16:24:13;10.85;;;5.65;;
1545;SDS011;766;51.502;9.752;2022-08-25T16:26:44;9.73;;;5.82;;
1545;SDS011;766;51.502;9.752;2022-08-25T16:29:14;10.77;;;5.47;;
1545;SDS011;766;51.502;9.752;2022-08-25T16:31:43;8.52;;;5.60;;
1545;SDS011;766;51.502;9.752;2022-08-25T16:34:20;8.70;;;5.07;;
1545;SDS011;766;51.502;9.752;2022-08-25T16:36:57;11.25;;;5.80;;
1545;SDS011;766;51.502;9.752;2022-08-25T16:39:25;6.63;;;5.35;;
1545;SDS011;766;51.502;9.752;2022-08-25T16:41:54;8.20;;;5.38;;